sensor_id;sensor_type;location;lat;lon;timestamp;temperature;humidity
17740;DHT22;8990;33.226;-97.150;2022-11-21T00:01:52;8.80;99.90
17740;DHT22;8990;33.226;-97.150;2022-11-21T00:04:22;8.90;99.90
17740;DHT22;8990;33.226;-97.150;2022-11-21T00:06:53;8.90;99.90
17740;DHT22;8990;33.226;-97.150;2022-11-21T00:09:23;8.90;99.90
17740;DHT22;8990;33.226;-97.150;2022-11-21T00:11:53;8.90;99.90
17740;DHT22;8990;33.226;-97.150;2022-11-21T00:14:22;8.80;99.90
17740;DHT22;8990;33.226;-97.150;2022-11-21T00:16:52;8.80;99.90
17740;DHT22;8990;33.226;-97.150;2022-11-21T00:19:21;8.80;99.90
17740;DHT22;8990;33.226;-97.150;2022-11-21T00:21:53;8.80;99.90
17740;DHT22;8990;33.226;-97.150;2022-11-21T00:24:24;8.70;99.90
17740;DHT22;8990;33.226;-97.150;2022-11-21T00:26:54;8.60;99.90
17740;DHT22;8990;33.226;-97.150;2022-11-21T00:29:25;8.60;99.90
17740;DHT22;8990;33.226;-97.150;2022-11-21T00:31:54;8.60;99.90
17740;DHT22;8990;33.226;-97.150;2022-11-21T00:34:23;8.50;99.90
17740;DHT22;8990;33.226;-97.150;2022-11-21T00:36:55;8.40;99.90
17740;DHT22;8990;33.226;-97.150;2022-11-21T00:39:25;8.20;99.90
17740;DHT22;8990;33.226;-97.150;2022-11-21T00:41:55;8.00;99.90
17740;DHT22;8990;33.226;-97.150;2022-11-21T00:44:26;7.90;99.90
17740;DHT22;8990;33.226;-97.150;2022-11-21T00:46:55;7.90;99.90
17740;DHT22;8990;33.226;-97.150;2022-11-21T00:49:24;7.90;99.90
17740;DHT22;8990;33.226;-97.150;2022-11-21T00:51:56;7.90;99.90
17740;DHT22;8990;33.226;-97.150;2022-11-21T00:54:27;7.80;99.90
17740;DHT22;8990;33.226;-97.150;2022-11-21T00:56:56;7.80;99.90
17740;DHT22;8990;33.226;-97.150;2022-11-21T00:59:25;7.60;99.90
17740;DHT22;8990;33.226;-97.150;2022-11-21T01:01:55;7.50;99.90
17740;DHT22;8990;33.226;-97.150;2022-11-21T01:04:27;7.40;99.90
17740;DHT22;8990;33.226;-97.150;2022-11-21T01:06:59;7.40;99.90
17740;DHT22;8990;33.226;-97.150;2022-11-21T01:09:30;7.40;99.90
17740;DHT22;8990;33.226;-97.150;2022-11-21T01:11:58;7.20;99.90
17740;DHT22;8990;33.226;-97.150;2022-11-21T01:14:29;7.10;99.90
17740;DHT22;8990;33.226;-97.150;2022-11-21T01:16:59;6.90;99.90
17740;DHT22;8990;33.226;-97.150;2022-11-21T01:19:29;6.80;99.90
17740;DHT22;8990;33.226;-97.150;2022-11-21T01:21:59;6.70;99.90
17740;DHT22;8990;33.226;-97.150;2022-11-21T01:24:29;6.60;99.90
17740;DHT22;8990;33.226;-97.150;2022-11-21T01:26:58;6.60;99.90
17740;DHT22;8990;33.226;-97.150;2022-11-21T01:29:29;6.60;99.90
17740;DHT22;8990;33.226;-97.150;2022-11-21T01:31:58;6.40;99.90
17740;DHT22;8990;33.226;-97.150;2022-11-21T01:34:27;6.40;99.90
17740;DHT22;8990;33.226;-97.150;2022-11-21T01:36:58;6.30;99.90
17740;DHT22;8990;33.226;-97.150;2022-11-21T01:39:28;6.30;99.90
17740;DHT22;8990;33.226;-97.150;2022-11-21T01:41:57;6.20;99.90
17740;DHT22;8990;33.226;-97.150;2022-11-21T01:44:45;6.20;99.90
17740;DHT22;8990;33.226;-97.150;2022-11-21T01:47:16;6.30;99.90
17740;DHT22;8990;33.226;-97.150;2022-11-21T01:49:46;6.20;99.90
17740;DHT22;8990;33.226;-97.150;2022-11-21T01:52:20;6.20;99.90
17740;DHT22;8990;33.226;-97.150;2022-11-21T01:54:54;6.20;99.90
17740;DHT22;8990;33.226;-97.150;2022-11-21T01:57:27;6.20;99.90
17740;DHT22;8990;33.226;-97.150;2022-11-21T01:59:58;6.20;99.90
17740;DHT22;8990;33.226;-97.150;2022-11-21T02:02:37;6.20;99.90
17740;DHT22;8990;33.226;-97.150;2022-11-21T02:05:11;6.10;99.90
17740;DHT22;8990;33.226;-97.150;2022-11-21T02:07:46;6.10;99.90
17740;DHT22;8990;33.226;-97.150;2022-11-21T02:10:17;6.10;99.90
17740;DHT22;8990;33.226;-97.150;2022-11-21T02:12:49;6.10;99.90
17740;DHT22;8990;33.226;-97.150;2022-11-21T02:15:20;6.10;99.90
17740;DHT22;8990;33.226;-97.150;2022-11-21T02:17:49;6.20;99.90
17740;DHT22;8990;33.226;-97.150;2022-11-21T02:20:21;6.30;99.90
17740;DHT22;8990;33.226;-97.150;2022-11-21T02:22:58;6.30;99.90
17740;DHT22;8990;33.226;-97.150;2022-11-21T02:25:34;6.40;99.90
17740;DHT22;8990;33.226;-97.150;2022-11-21T02:28:06;6.50;99.90
17740;DHT22;8990;33.226;-97.150;2022-11-21T02:30:39;6.50;99.90
17740;DHT22;8990;33.226;-97.150;2022-11-21T02:33:08;6.60;99.90
17740;DHT22;8990;33.226;-97.150;2022-11-21T02:35:39;6.60;99.90
17740;DHT22;8990;33.226;-97.150;2022-11-21T02:38:12;6.70;99.90
17740;DHT22;8990;33.226;-97.150;2022-11-21T02:40:52;6.70;99.90
17740;DHT22;8990;33.226;-97.150;2022-11-21T02:43:26;6.80;99.90
17740;DHT22;8990;33.226;-97.150;2022-11-21T02:45:56;6.90;99.90
17740;DHT22;8990;33.226;-97.150;2022-11-21T02:48:27;7.00;99.90
17740;DHT22;8990;33.226;-97.150;2022-11-21T02:50:57;7.10;99.90
17740;DHT22;8990;33.226;-97.150;2022-11-21T02:53:27;7.20;99.90
17740;DHT22;8990;33.226;-97.150;2022-11-21T02:55:58;7.30;99.90
17740;DHT22;8990;33.226;-97.150;2022-11-21T02:58:29;7.30;99.90
17740;DHT22;8990;33.226;-97.150;2022-11-21T03:00:59;7.40;99.90
17740;DHT22;8990;33.226;-97.150;2022-11-21T03:03:29;7.40;99.90
17740;DHT22;8990;33.226;-97.150;2022-11-21T03:06:01;7.50;99.90
17740;DHT22;8990;33.226;-97.150;2022-11-21T03:08:30;7.60;99.90
17740;DHT22;8990;33.226;-97.150;2022-11-21T03:11:01;7.60;99.90
17740;DHT22;8990;33.226;-97.150;2022-11-21T03:13:31;7.60;99.90
17740;DHT22;8990;33.226;-97.150;2022-11-21T03:16:00;7.70;99.90
17740;DHT22;8990;33.226;-97.150;2022-11-21T03:18:30;7.70;99.90
17740;DHT22;8990;33.226;-97.150;2022-11-21T03:20:59;7.70;99.90
17740;DHT22;8990;33.226;-97.150;2022-11-21T03:23:29;7.70;99.90
17740;DHT22;8990;33.226;-97.150;2022-11-21T03:26:00;7.70;99.90
17740;DHT22;8990;33.226;-97.150;2022-11-21T03:28:30;7.80;99.90
17740;DHT22;8990;33.226;-97.150;2022-11-21T03:30:59;7.70;99.90
17740;DHT22;8990;33.226;-97.150;2022-11-21T03:33:29;7.80;99.90
17740;DHT22;8990;33.226;-97.150;2022-11-21T03:35:59;7.80;99.90
17740;DHT22;8990;33.226;-97.150;2022-11-21T03:38:29;7.80;99.90
17740;DHT22;8990;33.226;-97.150;2022-11-21T03:41:04;7.80;99.90
17740;DHT22;8990;33.226;-97.150;2022-11-21T03:43:54;7.80;99.90
17740;DHT22;8990;33.226;-97.150;2022-11-21T03:46:24;7.80;99.90
17740;DHT22;8990;33.226;-97.150;2022-11-21T03:48:54;7.80;99.90
17740;DHT22;8990;33.226;-97.150;2022-11-21T03:51:23;7.80;99.90
17740;DHT22;8990;33.226;-97.150;2022-11-21T03:53:54;7.70;99.90
17740;DHT22;8990;33.226;-97.150;2022-11-21T03:56:24;7.80;99.90
17740;DHT22;8990;33.226;-97.150;2022-11-21T03:58:54;7.80;99.90
17740;DHT22;8990;33.226;-97.150;2022-11-21T04:01:40;7.80;99.90
17740;DHT22;8990;33.226;-97.150;2022-11-21T04:04:11;7.70;99.90
17740;DHT22;8990;33.226;-97.150;2022-11-21T04:06:40;7.80;99.90
17740;DHT22;8990;33.226;-97.150;2022-11-21T04:09:10;7.70;99.90
17740;DHT22;8990;33.226;-97.150;2022-11-21T04:11:42;7.70;99.90
17740;DHT22;8990;33.226;-97.150;2022-11-21T04:14:11;7.70;99.90
17740;DHT22;8990;33.226;-97.150;2022-11-21T04:16:41;7.70;99.90
17740;DHT22;8990;33.226;-97.150;2022-11-21T04:19:11;7.60;99.90
17740;DHT22;8990;33.226;-97.150;2022-11-21T04:21:40;7.60;99.90
17740;DHT22;8990;33.226;-97.150;2022-11-21T04:24:11;7.60;99.90
17740;DHT22;8990;33.226;-97.150;2022-11-21T04:26:41;7.50;99.90
17740;DHT22;8990;33.226;-97.150;2022-11-21T04:29:11;7.50;99.90
17740;DHT22;8990;33.226;-97.150;2022-11-21T04:31:41;7.50;99.90
17740;DHT22;8990;33.226;-97.150;2022-11-21T04:34:11;7.50;99.90
17740;DHT22;8990;33.226;-97.150;2022-11-21T04:36:41;7.40;99.90
17740;DHT22;8990;33.226;-97.150;2022-11-21T04:39:10;7.50;99.90
17740;DHT22;8990;33.226;-97.150;2022-11-21T04:41:42;7.50;99.90
17740;DHT22;8990;33.226;-97.150;2022-11-21T04:44:12;7.40;99.90
17740;DHT22;8990;33.226;-97.150;2022-11-21T04:46:42;7.40;99.90
17740;DHT22;8990;33.226;-97.150;2022-11-21T04:49:13;7.40;99.90
17740;DHT22;8990;33.226;-97.150;2022-11-21T04:51:43;7.40;99.90
17740;DHT22;8990;33.226;-97.150;2022-11-21T04:54:12;7.30;99.90
17740;DHT22;8990;33.226;-97.150;2022-11-21T04:56:43;7.30;99.90
17740;DHT22;8990;33.226;-97.150;2022-11-21T04:59:13;7.30;99.90
17740;DHT22;8990;33.226;-97.150;2022-11-21T05:01:42;7.30;99.90
17740;DHT22;8990;33.226;-97.150;2022-11-21T05:04:12;7.30;99.90
17740;DHT22;8990;33.226;-97.150;2022-11-21T05:06:41;7.30;99.90
17740;DHT22;8990;33.226;-97.150;2022-11-21T05:09:11;7.20;99.90
17740;DHT22;8990;33.226;-97.150;2022-11-21T05:11:43;7.30;99.90
17740;DHT22;8990;33.226;-97.150;2022-11-21T05:14:30;7.10;99.90
17740;DHT22;8990;33.226;-97.150;2022-11-21T05:16:59;7.20;99.90
17740;DHT22;8990;33.226;-97.150;2022-11-21T05:19:28;7.20;99.90
17740;DHT22;8990;33.226;-97.150;2022-11-21T05:21:59;7.20;99.90
17740;DHT22;8990;33.226;-97.150;2022-11-21T05:24:28;7.20;99.90
17740;DHT22;8990;33.226;-97.150;2022-11-21T05:26:59;7.20;99.90
17740;DHT22;8990;33.226;-97.150;2022-11-21T05:29:28;7.20;99.90
17740;DHT22;8990;33.226;-97.150;2022-11-21T05:31:59;7.20;99.90
17740;DHT22;8990;33.226;-97.150;2022-11-21T05:34:27;7.10;99.90
17740;DHT22;8990;33.226;-97.150;2022-11-21T05:36:57;7.20;99.90
17740;DHT22;8990;33.226;-97.150;2022-11-21T05:39:27;7.10;99.90
17740;DHT22;8990;33.226;-97.150;2022-11-21T05:41:59;7.10;99.90
17740;DHT22;8990;33.226;-97.150;2022-11-21T05:44:28;7.20;99.90
17740;DHT22;8990;33.226;-97.150;2022-11-21T05:46:56;7.20;99.90
17740;DHT22;8990;33.226;-97.150;2022-11-21T05:49:25;7.10;99.90
17740;DHT22;8990;33.226;-97.150;2022-11-21T05:51:55;7.20;99.90
17740;DHT22;8990;33.226;-97.150;2022-11-21T05:54:25;7.10;99.90
17740;DHT22;8990;33.226;-97.150;2022-11-21T05:56:54;7.10;99.90
17740;DHT22;8990;33.226;-97.150;2022-11-21T05:59:26;7.10;99.90
17740;DHT22;8990;33.226;-97.150;2022-11-21T06:01:55;7.10;99.90
17740;DHT22;8990;33.226;-97.150;2022-11-21T06:04:42;7.10;99.90
17740;DHT22;8990;33.226;-97.150;2022-11-21T06:07:12;7.10;99.90
17740;DHT22;8990;33.226;-97.150;2022-11-21T06:09:41;7.00;99.90
17740;DHT22;8990;33.226;-97.150;2022-11-21T06:12:12;7.00;99.90
17740;DHT22;8990;33.226;-97.150;2022-11-21T06:14:44;7.00;99.90
17740;DHT22;8990;33.226;-97.150;2022-11-21T06:17:13;7.00;99.90
17740;DHT22;8990;33.226;-97.150;2022-11-21T06:19:43;7.00;99.90
17740;DHT22;8990;33.226;-97.150;2022-11-21T06:22:13;7.00;99.90
17740;DHT22;8990;33.226;-97.150;2022-11-21T06:24:42;7.10;99.90
17740;DHT22;8990;33.226;-97.150;2022-11-21T06:27:12;7.10;99.90
17740;DHT22;8990;33.226;-97.150;2022-11-21T06:29:44;7.00;99.90
17740;DHT22;8990;33.226;-97.150;2022-11-21T06:32:13;7.00;99.90
17740;DHT22;8990;33.226;-97.150;2022-11-21T06:34:43;7.00;99.90
17740;DHT22;8990;33.226;-97.150;2022-11-21T06:37:13;7.00;99.90
17740;DHT22;8990;33.226;-97.150;2022-11-21T06:39:42;6.90;99.90
17740;DHT22;8990;33.226;-97.150;2022-11-21T06:42:12;6.90;99.90
17740;DHT22;8990;33.226;-97.150;2022-11-21T06:44:43;6.90;99.90
17740;DHT22;8990;33.226;-97.150;2022-11-21T06:47:12;6.90;99.90
17740;DHT22;8990;33.226;-97.150;2022-11-21T06:49:42;6.90;99.90
17740;DHT22;8990;33.226;-97.150;2022-11-21T06:52:11;6.80;99.90
17740;DHT22;8990;33.226;-97.150;2022-11-21T06:54:42;6.80;99.90
17740;DHT22;8990;33.226;-97.150;2022-11-21T06:57:10;6.70;99.90
17740;DHT22;8990;33.226;-97.150;2022-11-21T06:59:40;6.70;99.90
17740;DHT22;8990;33.226;-97.150;2022-11-21T07:02:13;6.70;99.90
17740;DHT22;8990;33.226;-97.150;2022-11-21T07:04:42;6.60;99.90
17740;DHT22;8990;33.226;-97.150;2022-11-21T07:07:12;6.60;99.90
17740;DHT22;8990;33.226;-97.150;2022-11-21T07:09:41;6.60;99.90
17740;DHT22;8990;33.226;-97.150;2022-11-21T07:12:13;6.60;99.90
17740;DHT22;8990;33.226;-97.150;2022-11-21T07:15:00;6.60;99.90
17740;DHT22;8990;33.226;-97.150;2022-11-21T07:17:32;6.60;99.90
17740;DHT22;8990;33.226;-97.150;2022-11-21T07:20:02;6.70;99.90
17740;DHT22;8990;33.226;-97.150;2022-11-21T07:22:32;6.60;99.90
17740;DHT22;8990;33.226;-97.150;2022-11-21T07:25:01;6.60;99.90
17740;DHT22;8990;33.226;-97.150;2022-11-21T07:27:31;6.70;99.90
17740;DHT22;8990;33.226;-97.150;2022-11-21T07:30:01;6.60;99.90
17740;DHT22;8990;33.226;-97.150;2022-11-21T07:32:32;6.60;99.90
17740;DHT22;8990;33.226;-97.150;2022-11-21T07:35:02;6.70;99.90
17740;DHT22;8990;33.226;-97.150;2022-11-21T07:37:32;6.60;99.90
17740;DHT22;8990;33.226;-97.150;2022-11-21T07:40:06;6.70;99.90
17740;DHT22;8990;33.226;-97.150;2022-11-21T07:42:35;6.70;99.90
17740;DHT22;8990;33.226;-97.150;2022-11-21T07:45:05;6.70;99.90
17740;DHT22;8990;33.226;-97.150;2022-11-21T07:47:37;6.70;99.90
17740;DHT22;8990;33.226;-97.150;2022-11-21T07:50:08;6.70;99.90
17740;DHT22;8990;33.226;-97.150;2022-11-21T07:52:38;6.70;99.90
17740;DHT22;8990;33.226;-97.150;2022-11-21T07:55:08;6.70;99.90
17740;DHT22;8990;33.226;-97.150;2022-11-21T07:57:37;6.60;99.90
17740;DHT22;8990;33.226;-97.150;2022-11-21T08:00:08;6.70;99.90
17740;DHT22;8990;33.226;-97.150;2022-11-21T08:02:40;6.60;99.90
17740;DHT22;8990;33.226;-97.150;2022-11-21T08:05:10;6.70;99.90
17740;DHT22;8990;33.226;-97.150;2022-11-21T08:07:39;6.70;99.90
17740;DHT22;8990;33.226;-97.150;2022-11-21T08:10:10;6.70;99.90
17740;DHT22;8990;33.226;-97.150;2022-11-21T08:12:40;6.60;99.90
17740;DHT22;8990;33.226;-97.150;2022-11-21T08:15:11;6.70;99.90
17740;DHT22;8990;33.226;-97.150;2022-11-21T08:17:42;6.70;99.90
17740;DHT22;8990;33.226;-97.150;2022-11-21T08:20:12;6.70;99.90
17740;DHT22;8990;33.226;-97.150;2022-11-21T08:22:42;6.70;99.90
17740;DHT22;8990;33.226;-97.150;2022-11-21T08:25:11;6.60;99.90
17740;DHT22;8990;33.226;-97.150;2022-11-21T08:27:41;6.60;99.90
17740;DHT22;8990;33.226;-97.150;2022-11-21T08:30:11;6.60;99.90
17740;DHT22;8990;33.226;-97.150;2022-11-21T08:32:43;6.70;99.90
17740;DHT22;8990;33.226;-97.150;2022-11-21T08:35:12;6.70;99.90
17740;DHT22;8990;33.226;-97.150;2022-11-21T08:37:42;6.60;99.90
17740;DHT22;8990;33.226;-97.150;2022-11-21T08:40:13;6.60;99.90
17740;DHT22;8990;33.226;-97.150;2022-11-21T08:42:43;6.60;99.90
17740;DHT22;8990;33.226;-97.150;2022-11-21T08:45:13;6.60;99.90
17740;DHT22;8990;33.226;-97.150;2022-11-21T08:47:44;6.70;99.90
17740;DHT22;8990;33.226;-97.150;2022-11-21T08:50:15;6.60;99.90
17740;DHT22;8990;33.226;-97.150;2022-11-21T08:52:44;6.60;99.90
17740;DHT22;8990;33.226;-97.150;2022-11-21T08:55:14;6.60;99.90
17740;DHT22;8990;33.226;-97.150;2022-11-21T08:57:44;6.60;99.90
17740;DHT22;8990;33.226;-97.150;2022-11-21T09:00:14;6.60;99.90
17740;DHT22;8990;33.226;-97.150;2022-11-21T09:02:46;6.60;99.90
17740;DHT22;8990;33.226;-97.150;2022-11-21T09:05:15;6.60;99.90
17740;DHT22;8990;33.226;-97.150;2022-11-21T09:07:45;6.50;99.90
17740;DHT22;8990;33.226;-97.150;2022-11-21T09:10:16;6.50;99.90
17740;DHT22;8990;33.226;-97.150;2022-11-21T09:12:46;6.50;99.90
17740;DHT22;8990;33.226;-97.150;2022-11-21T09:15:16;6.50;99.90
17740;DHT22;8990;33.226;-97.150;2022-11-21T09:18:05;6.50;99.90
17740;DHT22;8990;33.226;-97.150;2022-11-21T09:20:38;6.50;99.90
17740;DHT22;8990;33.226;-97.150;2022-11-21T09:23:10;6.50;99.90
17740;DHT22;8990;33.226;-97.150;2022-11-21T09:25:41;6.50;99.90
17740;DHT22;8990;33.226;-97.150;2022-11-21T09:28:12;6.40;99.90
17740;DHT22;8990;33.226;-97.150;2022-11-21T09:30:42;6.40;99.90
17740;DHT22;8990;33.226;-97.150;2022-11-21T09:33:14;6.50;99.90
17740;DHT22;8990;33.226;-97.150;2022-11-21T09:35:44;6.50;99.90
17740;DHT22;8990;33.226;-97.150;2022-11-21T09:38:14;6.60;99.90
17740;DHT22;8990;33.226;-97.150;2022-11-21T09:40:44;6.60;99.90
17740;DHT22;8990;33.226;-97.150;2022-11-21T09:43:37;6.60;99.90
17740;DHT22;8990;33.226;-97.150;2022-11-21T09:46:14;6.60;99.90
17740;DHT22;8990;33.226;-97.150;2022-11-21T09:48:52;6.60;99.90
17740;DHT22;8990;33.226;-97.150;2022-11-21T09:51:25;6.60;99.90
17740;DHT22;8990;33.226;-97.150;2022-11-21T09:53:58;6.60;99.90
17740;DHT22;8990;33.226;-97.150;2022-11-21T09:56:32;6.60;99.90
17740;DHT22;8990;33.226;-97.150;2022-11-21T09:59:22;6.60;99.90
17740;DHT22;8990;33.226;-97.150;2022-11-21T10:01:54;6.60;99.90
17740;DHT22;8990;33.226;-97.150;2022-11-21T10:04:25;6.60;99.90
17740;DHT22;8990;33.226;-97.150;2022-11-21T10:07:01;6.50;99.90
17740;DHT22;8990;33.226;-97.150;2022-11-21T10:09:43;6.50;99.90
17740;DHT22;8990;33.226;-97.150;2022-11-21T10:12:23;6.60;99.90
17740;DHT22;8990;33.226;-97.150;2022-11-21T10:15:25;6.50;99.90
17740;DHT22;8990;33.226;-97.150;2022-11-21T10:21:02;6.60;99.90
17740;DHT22;8990;33.226;-97.150;2022-11-21T10:23:43;6.50;99.90
17740;DHT22;8990;33.226;-97.150;2022-11-21T10:26:22;6.60;99.90
17740;DHT22;8990;33.226;-97.150;2022-11-21T10:28:58;6.60;99.90
17740;DHT22;8990;33.226;-97.150;2022-11-21T10:31:32;6.60;99.90
17740;DHT22;8990;33.226;-97.150;2022-11-21T10:34:09;6.60;99.90
17740;DHT22;8990;33.226;-97.150;2022-11-21T10:36:43;6.70;99.90
17740;DHT22;8990;33.226;-97.150;2022-11-21T10:39:19;6.70;99.90
17740;DHT22;8990;33.226;-97.150;2022-11-21T10:41:53;6.70;99.90
17740;DHT22;8990;33.226;-97.150;2022-11-21T10:44:26;6.70;99.90
17740;DHT22;8990;33.226;-97.150;2022-11-21T10:47:15;6.70;99.90
17740;DHT22;8990;33.226;-97.150;2022-11-21T10:50:04;6.60;99.90
17740;DHT22;8990;33.226;-97.150;2022-11-21T10:52:44;6.60;99.90
17740;DHT22;8990;33.226;-97.150;2022-11-21T10:55:17;6.70;99.90
17740;DHT22;8990;33.226;-97.150;2022-11-21T10:57:47;6.70;99.90
17740;DHT22;8990;33.226;-97.150;2022-11-21T11:00:21;6.60;99.90
17740;DHT22;8990;33.226;-97.150;2022-11-21T11:03:03;6.70;99.90
17740;DHT22;8990;33.226;-97.150;2022-11-21T11:05:36;6.60;99.90
17740;DHT22;8990;33.226;-97.150;2022-11-21T11:08:08;6.70;99.90
17740;DHT22;8990;33.226;-97.150;2022-11-21T11:10:38;6.70;99.90
17740;DHT22;8990;33.226;-97.150;2022-11-21T11:13:18;6.70;99.90
17740;DHT22;8990;33.226;-97.150;2022-11-21T11:16:05;6.70;99.90
17740;DHT22;8990;33.226;-97.150;2022-11-21T11:18:38;6.70;99.90
17740;DHT22;8990;33.226;-97.150;2022-11-21T11:21:15;6.70;99.90
17740;DHT22;8990;33.226;-97.150;2022-11-21T11:23:48;6.60;99.90
17740;DHT22;8990;33.226;-97.150;2022-11-21T11:26:22;6.70;99.90
17740;DHT22;8990;33.226;-97.150;2022-11-21T11:28:57;6.70;99.90
17740;DHT22;8990;33.226;-97.150;2022-11-21T11:31:40;6.70;99.90
17740;DHT22;8990;33.226;-97.150;2022-11-21T11:34:13;6.70;99.90
17740;DHT22;8990;33.226;-97.150;2022-11-21T11:36:54;6.70;99.90
17740;DHT22;8990;33.226;-97.150;2022-11-21T11:39:40;6.70;99.90
17740;DHT22;8990;33.226;-97.150;2022-11-21T11:42:33;6.70;99.90
17740;DHT22;8990;33.226;-97.150;2022-11-21T11:45:36;6.70;99.90
17740;DHT22;8990;33.226;-97.150;2022-11-21T11:48:27;6.60;99.90
17740;DHT22;8990;33.226;-97.150;2022-11-21T11:51:00;6.60;99.90
17740;DHT22;8990;33.226;-97.150;2022-11-21T11:53:39;6.60;99.90
17740;DHT22;8990;33.226;-97.150;2022-11-21T11:56:16;6.60;99.90
17740;DHT22;8990;33.226;-97.150;2022-11-21T11:58:50;6.50;99.90
17740;DHT22;8990;33.226;-97.150;2022-11-21T12:01:24;6.60;99.90
17740;DHT22;8990;33.226;-97.150;2022-11-21T12:03:58;6.60;99.90
17740;DHT22;8990;33.226;-97.150;2022-11-21T12:06:32;6.60;99.90
17740;DHT22;8990;33.226;-97.150;2022-11-21T12:09:06;6.60;99.90
17740;DHT22;8990;33.226;-97.150;2022-11-21T12:11:50;6.60;99.90
17740;DHT22;8990;33.226;-97.150;2022-11-21T12:14:55;6.60;99.90
17740;DHT22;8990;33.226;-97.150;2022-11-21T12:17:49;6.60;99.90
17740;DHT22;8990;33.226;-97.150;2022-11-21T12:20:23;6.50;99.90
17740;DHT22;8990;33.226;-97.150;2022-11-21T12:22:56;6.50;99.90
17740;DHT22;8990;33.226;-97.150;2022-11-21T12:25:30;6.50;99.90
17740;DHT22;8990;33.226;-97.150;2022-11-21T12:28:08;6.50;99.90
17740;DHT22;8990;33.226;-97.150;2022-11-21T12:30:51;6.50;99.90
17740;DHT22;8990;33.226;-97.150;2022-11-21T12:33:24;6.50;99.90
17740;DHT22;8990;33.226;-97.150;2022-11-21T12:36:27;6.50;99.90
17740;DHT22;8990;33.226;-97.150;2022-11-21T12:39:16;6.50;99.90
17740;DHT22;8990;33.226;-97.150;2022-11-21T12:41:50;6.50;99.90
17740;DHT22;8990;33.226;-97.150;2022-11-21T12:44:53;6.60;99.90
17740;DHT22;8990;33.226;-97.150;2022-11-21T12:47:42;6.60;99.90
17740;DHT22;8990;33.226;-97.150;2022-11-21T12:50:31;6.60;99.90
17740;DHT22;8990;33.226;-97.150;2022-11-21T12:53:25;6.60;99.90
17740;DHT22;8990;33.226;-97.150;2022-11-21T12:56:19;6.60;99.90
17740;DHT22;8990;33.226;-97.150;2022-11-21T12:58:52;6.60;99.90
17740;DHT22;8990;33.226;-97.150;2022-11-21T13:01:28;6.70;99.90
17740;DHT22;8990;33.226;-97.150;2022-11-21T13:04:03;6.70;99.90
17740;DHT22;8990;33.226;-97.150;2022-11-21T13:06:39;6.70;99.90
17740;DHT22;8990;33.226;-97.150;2022-11-21T13:09:13;6.70;99.90
17740;DHT22;8990;33.226;-97.150;2022-11-21T13:11:51;6.70;99.90
17740;DHT22;8990;33.226;-97.150;2022-11-21T13:14:31;6.70;99.90
17740;DHT22;8990;33.226;-97.150;2022-11-21T13:17:12;6.70;99.90
17740;DHT22;8990;33.226;-97.150;2022-11-21T13:19:49;6.70;99.90
17740;DHT22;8990;33.226;-97.150;2022-11-21T13:22:53;6.70;99.90
17740;DHT22;8990;33.226;-97.150;2022-11-21T13:25:45;6.80;99.90
17740;DHT22;8990;33.226;-97.150;2022-11-21T13:28:40;6.80;99.90
17740;DHT22;8990;33.226;-97.150;2022-11-21T13:31:29;6.80;99.90
17740;DHT22;8990;33.226;-97.150;2022-11-21T13:34:03;6.90;99.90
17740;DHT22;8990;33.226;-97.150;2022-11-21T13:39:27;7.00;99.90
17740;DHT22;8990;33.226;-97.150;2022-11-21T13:48:09;7.00;99.90
17740;DHT22;8990;33.226;-97.150;2022-11-21T13:51:05;7.10;99.90
17740;DHT22;8990;33.226;-97.150;2022-11-21T13:57:00;7.10;99.90
17740;DHT22;8990;33.226;-97.150;2022-11-21T13:59:59;7.20;99.90
17740;DHT22;8990;33.226;-97.150;2022-11-21T14:03:03;7.20;99.90
17740;DHT22;8990;33.226;-97.150;2022-11-21T14:09:21;7.30;99.90
17740;DHT22;8990;33.226;-97.150;2022-11-21T14:11:55;7.40;99.90
17740;DHT22;8990;33.226;-97.150;2022-11-21T14:14:35;7.40;99.90
17740;DHT22;8990;33.226;-97.150;2022-11-21T14:20:12;7.50;99.90
17740;DHT22;8990;33.226;-97.150;2022-11-21T14:22:52;7.50;99.90
17740;DHT22;8990;33.226;-97.150;2022-11-21T14:25:33;7.50;99.90
17740;DHT22;8990;33.226;-97.150;2022-11-21T14:28:09;7.60;99.90
17740;DHT22;8990;33.226;-97.150;2022-11-21T14:30:42;7.60;99.90
17740;DHT22;8990;33.226;-97.150;2022-11-21T14:33:35;7.60;99.90
17740;DHT22;8990;33.226;-97.150;2022-11-21T14:36:07;7.70;99.90
17740;DHT22;8990;33.226;-97.150;2022-11-21T14:38:41;7.70;99.90
17740;DHT22;8990;33.226;-97.150;2022-11-21T14:41:28;7.80;99.90
17740;DHT22;8990;33.226;-97.150;2022-11-21T14:44:19;7.80;99.90
17740;DHT22;8990;33.226;-97.150;2022-11-21T14:46:49;7.90;99.90
17740;DHT22;8990;33.226;-97.150;2022-11-21T14:49:25;8.00;99.90
17740;DHT22;8990;33.226;-97.150;2022-11-21T14:52:23;8.00;99.90
17740;DHT22;8990;33.226;-97.150;2022-11-21T14:54:56;8.10;99.90
17740;DHT22;8990;33.226;-97.150;2022-11-21T14:57:29;8.20;99.90
17740;DHT22;8990;33.226;-97.150;2022-11-21T15:00:00;8.20;99.90
17740;DHT22;8990;33.226;-97.150;2022-11-21T15:02:31;8.30;99.90
17740;DHT22;8990;33.226;-97.150;2022-11-21T15:05:04;8.30;99.90
17740;DHT22;8990;33.226;-97.150;2022-11-21T15:07:38;8.40;99.90
17740;DHT22;8990;33.226;-97.150;2022-11-21T15:10:11;8.50;99.90
17740;DHT22;8990;33.226;-97.150;2022-11-21T15:12:48;8.60;99.90
17740;DHT22;8990;33.226;-97.150;2022-11-21T15:15:27;8.60;99.90
17740;DHT22;8990;33.226;-97.150;2022-11-21T15:17:58;8.60;99.90
17740;DHT22;8990;33.226;-97.150;2022-11-21T15:20:29;8.60;99.90
17740;DHT22;8990;33.226;-97.150;2022-11-21T15:22:59;8.70;99.90
17740;DHT22;8990;33.226;-97.150;2022-11-21T15:25:29;8.70;99.90
17740;DHT22;8990;33.226;-97.150;2022-11-21T15:28:14;8.80;99.90
17740;DHT22;8990;33.226;-97.150;2022-11-21T15:30:44;8.80;99.90
17740;DHT22;8990;33.226;-97.150;2022-11-21T15:33:14;8.90;99.90
17740;DHT22;8990;33.226;-97.150;2022-11-21T15:35:49;9.00;99.90
17740;DHT22;8990;33.226;-97.150;2022-11-21T15:38:26;9.00;99.90
17740;DHT22;8990;33.226;-97.150;2022-11-21T15:41:04;9.00;99.90
17740;DHT22;8990;33.226;-97.150;2022-11-21T15:43:38;8.90;99.90
17740;DHT22;8990;33.226;-97.150;2022-11-21T15:46:16;8.90;99.90
17740;DHT22;8990;33.226;-97.150;2022-11-21T15:48:48;9.00;99.90
17740;DHT22;8990;33.226;-97.150;2022-11-21T15:51:18;9.00;99.90
17740;DHT22;8990;33.226;-97.150;2022-11-21T15:53:49;9.00;99.90
17740;DHT22;8990;33.226;-97.150;2022-11-21T15:56:19;9.00;99.90
17740;DHT22;8990;33.226;-97.150;2022-11-21T15:58:51;9.10;99.90
17740;DHT22;8990;33.226;-97.150;2022-11-21T16:01:23;9.10;99.90
17740;DHT22;8990;33.226;-97.150;2022-11-21T16:03:57;9.20;99.90
17740;DHT22;8990;33.226;-97.150;2022-11-21T16:06:27;9.20;99.90
17740;DHT22;8990;33.226;-97.150;2022-11-21T16:08:56;9.10;99.90
17740;DHT22;8990;33.226;-97.150;2022-11-21T16:11:28;9.10;99.90
17740;DHT22;8990;33.226;-97.150;2022-11-21T16:14:01;9.20;99.90
17740;DHT22;8990;33.226;-97.150;2022-11-21T16:16:31;9.40;99.90
17740;DHT22;8990;33.226;-97.150;2022-11-21T16:19:01;9.40;99.90
17740;DHT22;8990;33.226;-97.150;2022-11-21T16:21:30;9.40;99.90
17740;DHT22;8990;33.226;-97.150;2022-11-21T16:24:00;9.50;99.90
17740;DHT22;8990;33.226;-97.150;2022-11-21T16:26:28;9.50;99.90
17740;DHT22;8990;33.226;-97.150;2022-11-21T16:29:01;9.50;99.90
17740;DHT22;8990;33.226;-97.150;2022-11-21T16:31:32;9.70;99.90
17740;DHT22;8990;33.226;-97.150;2022-11-21T16:34:03;9.70;99.90